PROFILE

 METAR AND TAF INFORMATION
METAR FOR CYYT
ADDS - METARS form results

(2257 UTC 23 April 2018)
Data provider http://aviationweather.gov/adds/metars/
 
METAR text: CYYT 232200Z 26011KT 15SM SCT220 06/M06 A3013 RMK CI4 SLP210
Conditions at: CYYT (ST JOHNS ARP , NL, CA) observed 2200 UTC 23 April 2018
Temperature: 6.0°C (43°F)
Dewpoint: -6.0°C (21°F) [RH = 42%]
Pressure (altimeter): 30.13 inches Hg (1020.4 mb)
[Sea-level pressure: 1021.0 mb]
Winds: from the W (260 degrees) at 13 MPH (11 knots; 5.7 m/s)
Visibility: 15 miles (24 km)
Ceiling: at least 12,000 feet AGL
Clouds: scattered clouds at 22000 feet AGL
Weather: no significant weather observed at this time

Forecast for: CYYT (ST JOHNS ARP , NL, CA)
Text: TAF CYYT 231742Z 2318/2418 27012KT P6SM FEW040
Forecast period: 1800 UTC 23 April 2018 to 0000 UTC 24 April 2018
Forecast type: FROM: standard forecast or significant change
Winds: from the W (270 degrees) at 14 MPH (12 knots; 6.2 m/s)
Visibility: 6 or more miles (10+ km)
Clouds: few clouds at 4000 feet AGL
Weather: no significant weather forecast for this period
Forecast for: CYYT (ST JOHNS ARP , NL, CA)
Text: TAF CYYT 231742Z 2318/2418 27012KT P6SM FEW040
Forecast period: 1800 UTC 23 April 2018 to 0000 UTC 24 April 2018
Forecast type: FROM: standard forecast or significant change
Winds: from the W (270 degrees) at 14 MPH (12 knots; 6.2 m/s)
Visibility: 6 or more miles (10+ km)
Clouds: few clouds at 4000 feet AGL
Weather: no significant weather forecast for this period
Forecast for: CYYT (ST JOHNS ARP , NL, CA)
Text: TAF CYYT 231742Z 2318/2418 27012KT P6SM FEW040
Forecast period: 0000 to 0900 UTC 24 April 2018
Forecast type: BECOMING: Conditions expected to become as follows by 0200 UTC 24 April 2018
Winds: from the WSW (240 degrees) at 6 MPH (5 knots; 2.6 m/s)
Visibility: 6 or more miles (10+ km)
Clouds: few clouds at 4000 feet AGL
Weather: no significant weather forecast for this period
Forecast for: CYYT (ST JOHNS ARP , NL, CA)
Text: TAF CYYT 231742Z 2318/2418 27012KT P6SM FEW040
Forecast period: 0000 to 0900 UTC 24 April 2018
Forecast type: BECOMING: Conditions expected to become as follows by 0200 UTC 24 April 2018
Winds: from the WSW (240 degrees) at 6 MPH (5 knots; 2.6 m/s)
Visibility: 6 or more miles (10+ km)
Clouds: few clouds at 4000 feet AGL
Weather: no significant weather forecast for this period
Forecast for: CYYT (ST JOHNS ARP , NL, CA)
Text: TAF CYYT 231742Z 2318/2418 27012KT P6SM FEW040
Forecast period: 0900 to 1100 UTC 24 April 2018
Forecast type: BECOMING: Conditions expected to become as follows by 1100 UTC 24 April 2018
Winds: from the WSW (250 degrees) at 12 MPH (10 knots; 5.2 m/s)
gusting to 23 MPH (20 knots; 10.4 m/s)
Visibility: 6 or more miles (10+ km)
Clouds: few clouds at 4000 feet AGL
Weather: no significant weather forecast for this period
Forecast for: CYYT (ST JOHNS ARP , NL, CA)
Text: TAF CYYT 231742Z 2318/2418 27012KT P6SM FEW040
Forecast period: 0900 to 1100 UTC 24 April 2018
Forecast type: BECOMING: Conditions expected to become as follows by 1100 UTC 24 April 2018
Winds: from the WSW (250 degrees) at 12 MPH (10 knots; 5.2 m/s)
gusting to 23 MPH (20 knots; 10.4 m/s)
Visibility: 6 or more miles (10+ km)
Clouds: few clouds at 4000 feet AGL
Weather: no significant weather forecast for this period
Forecast for: CYYT (ST JOHNS ARP , NL, CA)
Text: TAF CYYT 231742Z 2318/2418 27012KT P6SM FEW040
Forecast period: 1100 to 1300 UTC 24 April 2018
Forecast type: FROM: standard forecast or significant change
Winds: from the WSW (250 degrees) at 12 MPH (10 knots; 5.2 m/s)
gusting to 23 MPH (20 knots; 10.4 m/s)
Visibility: 6 or more miles (10+ km)
Ceiling: 18000 feet AGL
Clouds: broken clouds at 18000 feet AGL
Weather: no significant weather forecast for this period
Forecast for: CYYT (ST JOHNS ARP , NL, CA)
Text: TAF CYYT 231742Z 2318/2418 27012KT P6SM FEW040
Forecast period: 1100 to 1300 UTC 24 April 2018
Forecast type: FROM: standard forecast or significant change
Winds: from the WSW (250 degrees) at 12 MPH (10 knots; 5.2 m/s)
gusting to 23 MPH (20 knots; 10.4 m/s)
Visibility: 6 or more miles (10+ km)
Ceiling: 18000 feet AGL
Clouds: broken clouds at 18000 feet AGL
Weather: no significant weather forecast for this period
Forecast for: CYYT (ST JOHNS ARP , NL, CA)
Text: TAF CYYT 231742Z 2318/2418 27012KT P6SM FEW040
Forecast period: 1300 to 1800 UTC 24 April 2018
Forecast type: BECOMING: Conditions expected to become as follows by 1500 UTC 24 April 2018
Winds: from the WSW (250 degrees) at 17 MPH (15 knots; 7.8 m/s)
gusting to 34 MPH (30 knots; 15.6 m/s)
Visibility: 6 or more miles (10+ km)
Ceiling: 18000 feet AGL
Clouds: broken clouds at 18000 feet AGL
Weather: no significant weather forecast for this period
Forecast for: CYYT (ST JOHNS ARP , NL, CA)
Text: TAF CYYT 231742Z 2318/2418 27012KT P6SM FEW040
Forecast period: 1300 to 1800 UTC 24 April 2018
Forecast type: BECOMING: Conditions expected to become as follows by 1500 UTC 24 April 2018
Winds: from the WSW (250 degrees) at 17 MPH (15 knots; 7.8 m/s)
gusting to 34 MPH (30 knots; 15.6 m/s)
Visibility: 6 or more miles (10+ km)
Ceiling: 18000 feet AGL
Clouds: broken clouds at 18000 feet AGL
Weather: no significant weather forecast for this period

 AIRPORT MAP

 RUNWAY INFORMATION
Runway 02 Runway length 5028 ft Runway width 100 ft
Runway elevation 445 ft Runway displaced threshold 0 ft Runway heading 356
Runway 20 Runway length 5028 ft Runway width 100 ft
Runway elevation 440 ft Runway displaced threshold 0 ft Runway heading 176
Runway 11 Runway length 8502 ft Runway width 200 ft
Runway elevation 458 ft Runway displaced threshold 0 ft Runway heading 86
Runway 29 Runway length 8502 ft Runway width 200 ft
Runway elevation 437 ft Runway displaced threshold 0 ft Runway heading 266
Runway 16 Runway length 7005 ft Runway width 200 ft
Runway elevation 444 ft Runway displaced threshold 0 ft Runway heading 142
Runway 34 Runway length 7005 ft Runway width 200 ft
Runway elevation 431 ft Runway displaced threshold 0 ft Runway heading 322

 AIRPORT FREQUENCIES
Type ATIS Name ATIS Frequency 128 MHZ
Type CNTR Name GANDER CNT Frequency 133.15 MHZ
Type FBO Name Shell Frequency 123 MHZ
Type GND Name GND Frequency 121.9 MHZ
Type RCO Name HALIFAX RD Frequency 123.275 MHZ
Type TWR Name TWR Frequency 120.6 MHZ

 AIRPORT NEAR NAVIGATION AIDS
Type NDB Name Signal Hill Frequency 358 KHZ
Type TACAN Name St.John's Frequency 108600 KHZ
Type NDB Name Torbay Frequency 260 KHZ
Type VOR-DME Name Torbay Frequency 113500 KHZ
Type NDB Name Wabana Frequency 270 KHZ
Type NDB Name Outer Cove Frequency 246 KHZ